Time;durP1;ratioP1;P1;durP2;ratioP2;P2;SDS_P1;SDS_P2;PMS_P1;PMS_P2;Temp;Humidity;BMP_temperature;BMP_pressure;BME280_temperature;BME280_humidity;BME280_pressure;Samples;Min_cycle;Max_cycle;Signal;HPM_P1;HPM_P2
2022/04/02 00:01:48;;;;;;;2.10;1.63;;;;;;;2.21;59.45;100476.00;5054376;28;20274;-74
2022/04/02 00:04:14;;;;;;;1.57;1.13;;;;;;;2.17;60.12;100472.50;5053601;28;20255;-75
2022/04/02 00:06:41;;;;;;;2.27;1.47;;;;;;;2.19;61.04;100469.09;5053662;28;20623;-76
2022/04/02 00:09:07;;;;;;;1.77;1.50;;;;;;;2.19;60.20;100457.94;5053279;28;20267;-74
2022/04/02 00:11:35;;;;;;;2.40;1.43;;;;;;;2.19;59.99;100453.66;5053414;28;20225;-74
2022/04/02 00:14:01;;;;;;;2.27;1.30;;;;;;;2.20;60.10;100441.66;5053317;28;20200;-75
2022/04/02 00:16:28;;;;;;;1.50;1.20;;;;;;;2.22;60.31;100437.41;5050651;28;20243;-75
2022/04/02 00:18:54;;;;;;;3.20;1.50;;;;;;;2.22;60.08;100445.13;5053486;28;20201;-76
2022/04/02 00:21:21;;;;;;;1.40;1.30;;;;;;;2.22;59.93;100449.38;5053805;28;20194;-76
2022/04/02 00:23:47;;;;;;;2.37;1.63;;;;;;;2.22;61.25;100439.09;5053438;28;20206;-76
2022/04/02 00:26:15;;;;;;;1.30;1.20;;;;;;;2.22;61.48;100434.81;5053779;28;20267;-74
2022/04/02 00:28:44;;;;;;;1.73;1.63;;;;;;;2.22;61.35;100415.91;5053838;28;20209;-76
2022/04/02 00:31:13;;;;;;;1.37;1.20;;;;;;;2.23;60.62;100426.22;5053587;28;20248;-76
2022/04/02 00:33:41;;;;;;;1.83;1.27;;;;;;;2.21;60.85;100439.94;5052511;28;20205;-76
2022/04/02 00:36:08;;;;;;;2.27;1.27;;;;;;;2.21;60.27;100450.25;5046520;28;20209;-77
2022/04/02 00:38:35;;;;;;;1.90;1.60;;;;;;;2.17;60.50;100439.88;5033754;28;20202;-76
2022/04/02 00:41:01;;;;;;;2.20;1.33;;;;;;;2.18;60.39;100448.47;5033505;28;20226;-76
2022/04/02 00:43:29;;;;;;;4.00;1.90;;;;;;;2.17;61.18;100451.91;5033639;28;20264;-75
2022/04/02 00:45:59;;;;;;;1.60;1.20;;;;;;;2.18;61.14;100444.19;5032837;28;20553;-74
2022/04/02 00:48:27;;;;;;;1.53;1.40;;;;;;;2.21;61.06;100437.38;5033672;28;20214;-76
2022/04/02 00:50:56;;;;;;;1.90;1.50;;;;;;;2.19;60.33;100439.91;5033578;28;20236;-76
2022/04/02 00:53:24;;;;;;;1.90;1.43;;;;;;;2.18;60.54;100456.19;5033570;28;20225;-76
2022/04/02 00:55:51;;;;;;;2.13;1.57;;;;;;;2.17;60.21;100460.47;5033069;28;20205;-76
2022/04/02 00:58:18;;;;;;;1.13;1.10;;;;;;;2.16;59.99;100463.03;5032991;28;20242;-76
2022/04/02 01:00:45;;;;;;;1.80;1.40;;;;;;;2.13;59.89;100479.31;5033240;28;20256;-76
2022/04/02 01:03:16;;;;;;;1.80;1.40;;;;;;;2.10;59.77;100471.53;5033400;28;20256;-76
2022/04/02 01:05:43;;;;;;;2.20;1.33;;;;;;;2.09;59.29;100479.25;5044512;28;20232;-75
2022/04/02 01:08:10;;;;;;;1.40;1.30;;;;;;;2.05;60.26;100472.31;5053085;28;20205;-75
2022/04/02 01:10:38;;;;;;;2.83;1.40;;;;;;;2.01;60.35;100460.22;5052855;28;20770;-75
2022/04/02 01:13:05;;;;;;;1.83;1.40;;;;;;;1.94;60.02;100467.84;5052626;28;20699;-76
2022/04/02 01:15:32;;;;;;;2.00;1.17;;;;;;;1.95;59.70;100486.72;5052672;28;20212;-76
2022/04/02 01:17:59;;;;;;;2.47;1.60;;;;;;;1.91;59.84;100474.66;5052725;28;20255;-76
2022/04/02 01:20:29;;;;;;;3.00;1.57;;;;;;;1.91;60.74;100472.94;5052279;28;20221;-76
2022/04/02 01:22:57;;;;;;;1.43;1.30;;;;;;;1.91;59.49;100472.94;5052763;28;20591;-76
2022/04/02 01:25:23;;;;;;;1.60;1.40;;;;;;;1.90;60.73;100473.78;5052091;28;20258;-74
2022/04/02 01:27:50;;;;;;;2.07;1.27;;;;;;;1.90;60.94;100463.50;5052424;28;20297;-76
2022/04/02 01:30:16;;;;;;;4.20;1.37;;;;;;;1.88;60.88;100462.56;5052745;28;20225;-76
2022/04/02 01:32:43;;;;;;;3.03;1.57;;;;;;;1.84;61.47;100447.94;5052134;28;20226;-74
2022/04/02 01:35:11;;;;;;;1.63;1.20;;;;;;;1.84;61.15;100450.50;5052078;28;20204;-74
2022/04/02 01:37:39;;;;;;;3.30;1.50;;;;;;;1.83;61.18;100441.06;5032363;28;20209;-76
2022/04/02 01:40:08;;;;;;;1.97;1.43;;;;;;;1.82;61.11;100441.88;5032360;28;20232;-77
2022/04/02 01:42:35;;;;;;;1.40;1.30;;;;;;;1.79;61.77;100437.56;5032215;28;20220;-76
2022/04/02 01:45:01;;;;;;;1.90;1.53;;;;;;;1.78;61.97;100434.97;5031857;28;20665;-78
2022/04/02 01:47:28;;;;;;;2.63;1.43;;;;;;;1.75;61.52;100442.66;5032184;28;20233;-76
2022/04/02 01:49:54;;;;;;;1.77;1.20;;;;;;;1.71;62.13;100422.84;5031779;28;20726;-76
2022/04/02 01:52:21;;;;;;;2.17;1.33;;;;;;;1.67;62.22;100426.22;5032316;28;20275;-75
2022/04/02 01:54:49;;;;;;;1.80;1.60;;;;;;;1.61;62.68;100428.69;5031875;28;20260;-77
2022/04/02 01:57:17;;;;;;;1.37;1.27;;;;;;;1.58;62.34;100427.75;5032082;28;20260;-76
2022/04/02 01:59:47;;;;;;;2.03;1.47;;;;;;;1.56;62.42;100419.16;5031977;28;20225;-76
2022/04/02 02:02:14;;;;;;;1.87;1.50;;;;;;;1.54;63.47;100418.25;5032268;28;20202;-75
2022/04/02 02:04:41;;;;;;;3.17;1.70;;;;;;;1.54;63.28;100407.13;5043164;28;20284;-76
2022/04/02 02:07:07;;;;;;;2.50;1.87;;;;;;;1.53;63.94;100397.69;5036386;28;20604;-76
2022/04/02 02:09:35;;;;;;;3.57;1.40;;;;;;;1.50;63.85;100398.47;5031731;28;20721;-76
2022/04/02 02:12:01;;;;;;;1.63;1.53;;;;;;;1.48;62.99;100400.16;5031899;28;20341;-75
2022/04/02 02:14:29;;;;;;;2.00;1.70;;;;;;;1.49;63.67;100409.63;5031548;28;20202;-76
2022/04/02 02:16:56;;;;;;;2.67;1.87;;;;;;;1.48;63.54;100399.31;5031752;28;20209;-76
2022/04/02 02:19:23;;;;;;;2.47;1.70;;;;;;;1.47;63.66;100392.44;5031579;28;20234;-75
2022/04/02 02:21:49;;;;;;;2.87;1.70;;;;;;;1.47;64.11;100392.44;5031943;28;20237;-75
2022/04/02 02:24:16;;;;;;;1.87;1.40;;;;;;;1.46;64.19;100398.41;5031316;28;20294;-75
2022/04/02 02:26:43;;;;;;;1.97;1.50;;;;;;;1.46;64.18;100393.25;5031786;28;20248;-75
2022/04/02 02:29:09;;;;;;;1.60;1.50;;;;;;;1.44;63.86;100388.09;5031618;28;20229;-77
2022/04/02 02:31:37;;;;;;;1.93;1.83;;;;;;;1.44;64.38;100372.66;5032000;28;20259;-74
2022/04/02 02:36:53;;;;;;;1.70;1.60;;;;;;;1.38;65.23;100367.41;4980970;28;20321;-76
2022/04/02 02:39:20;;;;;;;2.57;1.90;;;;;;;1.35;65.28;100363.09;5055557;28;20594;-77
2022/04/02 02:41:46;;;;;;;2.10;1.90;;;;;;;1.34;64.63;100360.47;5055565;28;20256;-76
2022/04/02 02:44:13;;;;;;;1.73;1.60;;;;;;;1.31;65.67;100353.59;5055567;28;20255;-76
2022/04/02 02:46:41;;;;;;;1.77;1.50;;;;;;;1.28;65.36;100350.94;5055490;28;20215;-76
2022/04/02 02:49:07;;;;;;;2.03;1.90;;;;;;;1.26;65.59;100351.78;5055699;28;20231;-76
2022/04/02 02:51:33;;;;;;;3.33;3.03;;;;;;;1.22;65.52;100350.84;5055384;28;20605;-75
2022/04/02 02:54:00;;;;;;;2.87;1.83;;;;;;;1.18;65.49;100342.22;5055035;28;20273;-75
2022/04/02 02:56:26;;;;;;;2.90;1.77;;;;;;;1.17;66.30;100337.06;5055130;28;20265;-76
2022/04/02 02:58:53;;;;;;;1.47;1.37;;;;;;;1.15;66.33;100333.56;5055266;28;20211;-75
2022/04/02 03:01:19;;;;;;;2.00;1.67;;;;;;;1.13;66.22;100328.44;5055492;28;20249;-75
2022/04/02 03:03:47;;;;;;;2.40;1.90;;;;;;;1.12;65.97;100328.41;5054906;28;20199;-76
2022/04/02 03:06:14;;;;;;;2.60;1.60;;;;;;;1.08;66.72;100327.47;5047119;28;20209;-75
2022/04/02 03:08:40;;;;;;;4.70;1.80;;;;;;;1.08;66.27;100331.75;5035326;28;20211;-77
2022/04/02 03:11:07;;;;;;;2.10;1.90;;;;;;;1.06;66.57;100329.16;5035149;28;20232;-75
2022/04/02 03:13:34;;;;;;;4.23;2.00;;;;;;;1.02;65.77;100329.94;5034976;28;20237;-76
2022/04/02 03:16:02;;;;;;;3.17;1.70;;;;;;;0.98;65.95;100329.00;5035116;28;20709;-77
2022/04/02 03:18:28;;;;;;;2.60;2.20;;;;;;;0.94;66.44;100323.78;5035221;28;20752;-74
2022/04/02 03:20:56;;;;;;;2.10;1.90;;;;;;;0.93;66.46;100320.38;5034884;28;20234;-77
2022/04/02 03:23:22;;;;;;;1.77;1.63;;;;;;;0.94;66.26;100321.22;5034798;28;20208;-76
2022/04/02 03:25:49;;;;;;;2.80;2.03;;;;;;;0.94;66.22;100324.66;5034486;28;20631;-76
2022/04/02 03:28:15;;;;;;;2.60;2.00;;;;;;;0.92;66.17;100331.47;5034863;28;20212;-74
2022/04/02 03:30:42;;;;;;;5.27;2.23;;;;;;;0.93;66.40;100325.50;5034732;28;20627;-76
2022/04/02 03:33:10;;;;;;;2.70;2.50;;;;;;;0.92;66.33;100328.03;5034128;28;20737;-76
2022/04/02 03:35:36;;;;;;;5.07;2.83;;;;;;;0.90;66.19;100324.56;5050596;28;20243;-76
2022/04/02 03:38:04;;;;;;;3.33;2.70;;;;;;;0.88;66.57;100323.69;5034608;28;20207;-76
2022/04/02 03:40:31;;;;;;;4.23;2.80;;;;;;;0.87;66.07;100327.06;5034588;28;20285;-76
2022/04/02 03:42:58;;;;;;;3.80;2.40;;;;;;;0.80;65.98;100336.38;5034092;28;20558;-76
2022/04/02 03:45:24;;;;;;;2.50;2.30;;;;;;;0.76;65.97;100344.88;5033953;28;20250;-76
2022/04/02 03:47:51;;;;;;;4.13;2.30;;;;;;;0.69;66.27;100343.00;5034736;28;20258;-75
2022/04/02 03:50:18;;;;;;;2.43;2.23;;;;;;;0.66;66.23;100338.69;5034253;28;20564;-75
2022/04/02 03:52:44;;;;;;;2.60;2.33;;;;;;;0.67;66.60;100340.41;5034423;28;20663;-76
2022/04/02 03:55:12;;;;;;;2.40;2.20;;;;;;;0.66;66.27;100335.25;5034209;28;20797;-75
2022/04/02 03:57:40;;;;;;;3.00;2.23;;;;;;;0.63;66.88;100324.91;5034560;28;20266;-76
2022/04/02 04:00:09;;;;;;;2.27;2.07;;;;;;;0.65;67.07;100333.50;5034225;28;20232;-76
2022/04/02 04:02:37;;;;;;;3.90;2.60;;;;;;;0.65;66.90;100336.94;5034191;28;20589;-75
2022/04/02 04:05:06;;;;;;;2.50;2.30;;;;;;;0.64;67.14;100340.38;5048814;28;20589;-77
2022/04/02 04:07:32;;;;;;;2.70;2.10;;;;;;;0.61;66.46;100332.59;5035314;28;20244;-75
2022/04/02 04:09:59;;;;;;;3.70;2.40;;;;;;;0.62;66.65;100339.47;5034046;28;20228;-74
2022/04/02 04:12:27;;;;;;;2.67;2.20;;;;;;;0.57;66.61;100344.50;5034014;28;20677;-77
2022/04/02 04:14:53;;;;;;;3.10;2.27;;;;;;;0.58;66.40;100345.38;5033709;28;20212;-77
2022/04/02 04:17:21;;;;;;;3.03;2.40;;;;;;;0.54;67.02;100341.03;5033855;28;20221;-74
2022/04/02 04:19:47;;;;;;;2.40;2.20;;;;;;;0.51;66.88;100340.94;5034091;28;20229;-77
2022/04/02 04:22:14;;;;;;;3.37;2.70;;;;;;;0.49;67.61;100332.34;5033555;28;20758;-74
2022/04/02 04:24:40;;;;;;;3.17;2.20;;;;;;;0.43;67.39;100334.78;5033620;28;20206;-76
2022/04/02 04:27:08;;;;;;;3.97;2.13;;;;;;;0.42;67.55;100327.91;5033771;28;20270;-76
2022/04/02 04:29:36;;;;;;;1.97;1.87;;;;;;;0.40;67.57;100327.91;5033589;28;20740;-76
2022/04/02 04:32:02;;;;;;;3.07;1.90;;;;;;;0.39;67.58;100332.16;5033386;28;20258;-76
2022/04/02 04:34:29;;;;;;;2.37;2.17;;;;;;;0.37;68.20;100326.13;5043201;28;20274;-76
2022/04/02 04:36:55;;;;;;;3.63;2.30;;;;;;;0.37;67.70;100323.53;5052552;28;20659;-77
2022/04/02 04:39:22;;;;;;;3.13;2.00;;;;;;;0.36;68.32;100326.97;5044058;28;20219;-76
2022/04/02 04:41:48;;;;;;;3.30;2.33;;;;;;;0.36;68.23;100332.09;5033472;28;20227;-76
2022/04/02 04:44:15;;;;;;;2.80;2.30;;;;;;;0.37;68.06;100328.69;5033363;28;20216;-76
2022/04/02 04:46:42;;;;;;;2.53;2.33;;;;;;;0.36;68.37;100331.25;5033596;28;20248;-75
2022/04/02 04:49:09;;;;;;;3.93;2.50;;;;;;;0.35;68.65;100327.78;5033049;28;20276;-76
2022/04/02 04:51:37;;;;;;;2.40;2.17;;;;;;;0.32;68.91;100326.88;5033432;28;20208;-77
2022/04/02 04:54:03;;;;;;;2.80;2.60;;;;;;;0.37;68.59;100325.25;5032860;28;20751;-75
2022/04/02 04:56:29;;;;;;;3.53;2.73;;;;;;;0.38;68.27;100335.56;5031810;28;20266;-75
2022/04/02 04:58:56;;;;;;;9.03;2.33;;;;;;;0.36;68.86;100337.25;5033270;28;20576;-76
2022/04/02 05:01:22;;;;;;;3.60;2.47;;;;;;;0.38;69.06;100332.13;5039383;28;20231;-77
2022/04/02 05:03:50;;;;;;;2.60;2.40;;;;;;;0.41;68.48;100341.59;5048042;28;20200;-76
2022/04/02 05:06:17;;;;;;;2.43;2.23;;;;;;;0.41;68.28;100334.75;5033131;28;20211;-76
2022/04/02 05:08:43;;;;;;;2.80;2.60;;;;;;;0.40;68.59;100335.59;5084634;22;20227;-69
2022/04/02 05:11:11;;;;;;;2.37;2.17;;;;;;;0.41;68.78;100345.03;5085573;28;20211;-70
2022/04/02 05:13:39;;;;;;;2.60;2.40;;;;;;;0.42;68.57;100338.19;5092655;28;20231;-69
2022/04/02 05:16:06;;;;;;;3.03;2.80;;;;;;;0.41;68.56;100337.31;5093232;28;20206;-69
2022/04/02 05:18:32;;;;;;;2.80;2.60;;;;;;;0.43;68.13;100342.50;5093193;28;20206;-70
2022/04/02 05:21:02;;;;;;;3.33;2.83;;;;;;;0.43;68.62;100352.75;5091784;28;20648;-69
2022/04/02 05:23:28;;;;;;;4.07;2.63;;;;;;;0.42;68.53;100348.44;5092979;28;20190;-70
2022/04/02 05:25:55;;;;;;;2.80;2.53;;;;;;;0.34;68.44;100356.88;5092599;28;20203;-69
2022/04/02 05:28:21;;;;;;;2.83;2.53;;;;;;;0.41;68.50;100351.88;5092774;28;20210;-70
2022/04/02 05:30:48;;;;;;;2.63;2.43;;;;;;;0.44;68.29;100357.06;5093018;28;20262;-69
2022/04/02 05:33:14;;;;;;;4.10;2.80;;;;;;;0.46;68.08;100358.84;5092889;28;20230;-70
2022/04/02 05:35:41;;;;;;;7.50;3.03;;;;;;;0.51;68.14;100358.91;5092463;28;20627;-69
2022/04/02 05:38:08;;;;;;;2.20;2.00;;;;;;;0.53;67.83;100363.25;5092783;28;20256;-70
2022/04/02 05:40:38;;;;;;;2.60;2.40;;;;;;;0.55;67.82;100364.13;5092620;28;20275;-70
2022/04/02 05:43:04;;;;;;;2.50;2.20;;;;;;;0.58;67.80;100373.63;5092888;28;20625;-70
2022/04/02 05:45:32;;;;;;;2.43;2.07;;;;;;;0.60;68.22;100382.22;5092442;28;20258;-69
2022/04/02 05:47:58;;;;;;;2.57;2.37;;;;;;;0.61;67.92;100383.94;5092480;28;20620;-69
2022/04/02 05:50:26;;;;;;;3.00;2.40;;;;;;;0.66;68.07;100404.63;5089357;28;20236;-70
2022/04/02 05:52:53;;;;;;;2.50;2.30;;;;;;;0.70;67.94;100396.13;5092177;28;20233;-69
2022/04/02 05:55:20;;;;;;;2.40;2.17;;;;;;;0.71;67.35;100398.72;5092124;28;20211;-70
2022/04/02 05:57:48;;;;;;;2.40;2.20;;;;;;;0.72;67.19;100409.88;5092563;28;20206;-69
2022/04/02 06:00:16;;;;;;;2.83;2.10;;;;;;;0.73;67.82;100425.31;5092312;28;20222;-70
2022/04/02 06:02:43;;;;;;;2.33;2.13;;;;;;;0.78;67.44;100407.44;5092435;28;20291;-70
2022/04/02 06:05:12;;;;;;;2.97;2.37;;;;;;;0.75;66.80;100433.03;5091877;28;20302;-70
2022/04/02 06:07:38;;;;;;;2.40;2.17;;;;;;;0.79;66.53;100427.13;5091839;28;20215;-69
2022/04/02 06:10:06;;;;;;;3.43;2.37;;;;;;;0.83;67.34;100440.91;5092323;28;20233;-69
2022/04/02 06:12:34;;;;;;;2.90;2.37;;;;;;;0.82;66.50;100449.47;5092320;28;20294;-68
2022/04/02 06:15:00;;;;;;;2.93;2.60;;;;;;;0.84;67.04;100448.66;5091973;28;20272;-69
2022/04/02 06:17:27;;;;;;;2.97;2.33;;;;;;;0.84;66.73;100461.50;5091905;28;20741;-69
2022/04/02 06:19:54;;;;;;;2.87;2.20;;;;;;;0.85;67.13;100458.09;5091973;28;20227;-69
2022/04/02 06:22:20;;;;;;;2.83;2.40;;;;;;;0.88;66.94;100465.00;5089081;28;20199;-71
2022/04/02 06:24:47;;;;;;;2.80;2.43;;;;;;;0.89;67.17;100474.44;5091921;28;20200;-69
2022/04/02 06:27:14;;;;;;;3.60;2.57;;;;;;;0.92;66.91;100464.25;5092157;28;20229;-69
2022/04/02 06:29:41;;;;;;;3.07;2.70;;;;;;;0.93;66.79;100471.97;5092074;28;20317;-69
2022/04/02 06:32:08;;;;;;;2.43;2.23;;;;;;;0.96;66.60;100490.03;5091918;28;20611;-69
2022/04/02 06:34:35;;;;;;;2.70;2.50;;;;;;;0.99;66.70;100491.78;5091556;28;20235;-69
2022/04/02 06:37:01;;;;;;;3.00;2.40;;;;;;;1.02;66.17;100499.56;5091804;28;20253;-69
2022/04/02 06:39:28;;;;;;;3.10;2.80;;;;;;;0.99;66.48;100500.38;5092023;28;20232;-69
2022/04/02 06:41:55;;;;;;;2.50;2.30;;;;;;;1.00;65.92;100503.81;5092178;28;20205;-69
2022/04/02 06:44:21;;;;;;;3.23;2.33;;;;;;;1.04;66.29;100510.75;5091728;28;20203;-69
2022/04/02 06:46:49;;;;;;;2.97;2.17;;;;;;;1.09;65.52;100509.16;5091921;28;20206;-69
2022/04/02 06:49:15;;;;;;;2.60;2.40;;;;;;;1.12;66.00;100514.34;5091654;28;20223;-69
2022/04/02 06:51:42;;;;;;;2.70;2.20;;;;;;;1.19;66.48;100510.22;5088882;28;20661;-69
2022/04/02 06:54:09;;;;;;;3.07;2.77;;;;;;;1.21;65.75;100510.22;5092611;28;20242;-70
2022/04/02 06:56:35;;;;;;;2.97;2.37;;;;;;;1.20;65.66;100527.34;5093817;28;20204;-69
2022/04/02 06:59:02;;;;;;;2.43;2.20;;;;;;;1.23;65.74;100527.44;5092881;28;20196;-70
2022/04/02 07:01:28;;;;;;;3.37;2.37;;;;;;;1.27;66.21;100528.34;5088461;28;20256;-69
2022/04/02 07:03:56;;;;;;;2.50;2.30;;;;;;;1.26;65.15;100544.63;5090438;28;20665;-69
2022/04/02 07:06:22;;;;;;;2.43;2.23;;;;;;;1.25;65.48;100538.63;5091357;28;20202;-69
2022/04/02 07:08:49;;;;;;;2.47;2.20;;;;;;;1.27;65.68;100544.66;5088372;28;20265;-69
2022/04/02 07:11:15;;;;;;;3.37;2.73;;;;;;;1.31;65.70;100545.56;5091105;28;20570;-69
2022/04/02 07:13:42;;;;;;;3.50;3.00;;;;;;;1.33;65.86;100541.34;5090729;28;20272;-70
2022/04/02 07:16:08;;;;;;;4.23;3.93;;;;;;;1.41;65.54;100550.06;5088344;28;20205;-71
2022/04/02 07:18:35;;;;;;;3.50;2.30;;;;;;;1.41;65.20;100539.78;5091482;28;20618;-70
2022/04/02 07:21:03;;;;;;;2.83;2.03;;;;;;;1.42;65.32;100550.94;5094718;28;20234;-70
2022/04/02 07:23:30;;;;;;;2.60;2.40;;;;;;;1.39;65.31;100554.31;5093311;28;20194;-70
2022/04/02 07:25:57;;;;;;;2.60;2.40;;;;;;;1.36;65.31;100574.81;5094863;28;20252;-70
2022/04/02 07:28:25;;;;;;;2.73;2.27;;;;;;;1.43;65.73;100553.53;5094635;28;20290;-70
2022/04/02 07:30:52;;;;;;;2.10;2.00;;;;;;;1.43;65.48;100566.41;5094572;28;20596;-70
2022/04/02 07:33:18;;;;;;;2.50;2.30;;;;;;;1.47;65.29;100570.78;5094259;28;20590;-71
2022/04/02 07:35:53;;;;;;;3.33;3.03;;;;;;;1.55;65.24;100576.06;5094378;28;20586;-70
2022/04/02 07:38:24;;;;;;;3.77;3.10;;;;;;;1.55;64.89;100591.50;5094691;28;20202;-70
2022/04/02 07:40:55;;;;;;;7.13;3.00;;;;;;;1.59;65.71;100583.00;5091699;28;20238;-70
2022/04/02 07:43:32;;;;;;;2.90;2.60;;;;;;;1.56;65.55;100578.66;5092331;28;20202;-70
2022/04/02 07:46:04;;;;;;;3.57;2.40;;;;;;;1.57;65.69;100574.41;5091737;28;20190;-70
2022/04/02 07:48:32;;;;;;;4.17;2.40;;;;;;;1.63;66.39;100563.38;5094484;28;20283;-70
2022/04/02 07:51:00;;;;;;;2.87;2.67;;;;;;;1.72;66.00;100566.09;5094277;28;20220;-70
2022/04/02 07:53:33;;;;;;;3.77;2.70;;;;;;;1.71;66.12;100570.38;5094139;28;20200;-70
2022/04/02 07:56:04;;;;;;;4.70;3.20;;;;;;;1.75;64.98;100574.75;5093972;28;20272;-70
2022/04/02 07:58:34;;;;;;;2.83;2.50;;;;;;;1.77;64.78;100595.38;5091204;28;20671;-71
2022/04/02 08:01:04;;;;;;;3.33;2.07;;;;;;;1.82;64.36;100614.31;5093879;28;20700;-71
2022/04/02 08:03:31;;;;;;;3.17;2.50;;;;;;;1.85;64.35;100624.69;5091554;28;20210;-70
2022/04/02 08:05:58;;;;;;;3.20;2.90;;;;;;;1.90;65.37;100612.78;5093982;28;20207;-70
2022/04/02 08:08:25;;;;;;;2.97;2.77;;;;;;;1.99;64.83;100605.22;5094219;28;20216;-70
2022/04/02 08:10:55;;;;;;;4.30;2.50;;;;;;;2.04;64.70;100623.31;5093888;28;20230;-70
2022/04/02 08:13:23;;;;;;;3.97;2.30;;;;;;;2.07;63.96;100628.53;5093558;28;20224;-71
2022/04/02 08:15:54;;;;;;;3.03;2.57;;;;;;;2.07;64.07;100630.25;5093757;28;20709;-70
2022/04/02 08:18:25;;;;;;;2.47;2.27;;;;;;;2.08;63.60;100640.59;5094313;28;20299;-71
2022/04/02 08:20:52;;;;;;;2.77;2.13;;;;;;;2.08;63.37;100658.59;5091194;28;20220;-70
2022/04/02 08:23:18;;;;;;;2.57;2.37;;;;;;;2.15;63.70;100660.44;5093997;28;20196;-70
2022/04/02 08:25:52;;;;;;;2.37;2.27;;;;;;;2.15;63.34;100682.75;5094073;28;20200;-70
2022/04/02 08:28:26;;;;;;;4.40;2.70;;;;;;;2.15;62.16;100705.94;5094239;28;20261;-70
2022/04/02 08:31:04;;;;;;;2.40;2.20;;;;;;;2.17;63.17;100699.97;5094266;28;20220;-70
2022/04/02 08:33:43;;;;;;;2.57;2.10;;;;;;;2.09;61.27;100726.41;5096002;28;20699;-70
2022/04/02 08:36:21;;;;;;;2.77;2.20;;;;;;;2.14;61.46;100742.81;5094475;28;20201;-70
2022/04/02 08:38:54;;;;;;;3.67;2.70;;;;;;;2.22;62.67;100730.09;5074033;28;20291;-71
2022/04/02 08:42:00;;;;;;;3.07;2.33;;;;;;;2.30;63.18;100721.69;5073882;28;20204;-70
2022/04/02 08:45:03;;;;;;;2.70;2.43;;;;;;;2.42;61.40;100720.16;5055172;28;20292;-70
2022/04/02 08:48:07;;;;;;;2.87;2.20;;;;;;;2.39;61.57;100763.06;5073607;28;20270;-70
2022/04/02 08:50:36;;;;;;;3.13;2.10;;;;;;;2.44;61.43;100767.44;5073254;28;20251;-71
2022/04/02 08:53:16;;;;;;;2.50;2.30;;;;;;;2.49;60.47;100764.09;5073429;28;20212;-70
2022/04/02 08:55:50;;;;;;;2.27;2.07;;;;;;;2.51;60.48;100777.03;5073056;28;20311;-70
2022/04/02 08:58:25;;;;;;;3.03;2.50;;;;;;;2.57;61.72;100761.69;5073363;28;20262;-70
2022/04/02 09:01:05;;;;;;;2.43;2.23;;;;;;;2.64;60.39;100781.59;5073030;28;20234;-70
2022/04/02 09:04:09;;;;;;;2.87;2.23;;;;;;;2.74;60.25;100778.34;5073804;28;20200;-70
2022/04/02 09:07:34;;;;;;;2.70;2.50;;;;;;;2.86;59.96;100788.00;5093152;28;20277;-70
2022/04/02 09:10:41;;;;;;;2.40;2.20;;;;;;;2.92;59.66;100813.91;5093182;28;20219;-70
2022/04/02 09:13:49;;;;;;;2.13;1.93;;;;;;;2.96;59.14;100818.25;5093093;28;20203;-70
2022/04/02 09:16:22;;;;;;;2.90;2.50;;;;;;;2.97;59.50;100821.69;5093295;28;20200;-71
2022/04/02 09:19:11;;;;;;;2.40;2.17;;;;;;;3.09;58.88;100832.25;5093148;28;20199;-69
2022/04/02 09:22:04;;;;;;;6.13;2.60;;;;;;;3.16;59.25;100830.66;5093026;28;20730;-70
2022/04/02 09:24:57;;;;;;;2.63;2.30;;;;;;;3.28;58.53;100828.28;5092910;28;20208;-70
2022/04/02 09:27:59;;;;;;;5.70;3.03;;;;;;;3.26;57.51;100866.06;5090340;28;20260;-70
2022/04/02 09:30:45;;;;;;;2.97;2.67;;;;;;;3.23;57.55;100888.38;5092699;28;20227;-70
2022/04/02 09:33:34;;;;;;;2.57;2.33;;;;;;;3.24;57.75;100882.38;5092859;28;20204;-71
2022/04/02 09:36:24;;;;;;;2.83;2.30;;;;;;;3.40;58.17;100883.53;5086715;28;20693;-70
2022/04/02 09:39:14;;;;;;;3.33;2.73;;;;;;;3.50;56.71;100873.38;5072664;28;20204;-70
2022/04/02 09:42:09;;;;;;;2.60;2.40;;;;;;;3.61;56.84;100907.13;5072047;28;20204;-70
2022/04/02 09:44:48;;;;;;;3.30;2.60;;;;;;;3.60;56.25;100915.69;5071978;28;20226;-70
2022/04/02 09:47:21;;;;;;;4.23;2.67;;;;;;;3.64;56.05;100927.81;5072625;28;20262;-70
2022/04/02 09:50:07;;;;;;;2.67;2.47;;;;;;;3.73;56.03;100940.03;5072458;28;20311;-70
2022/04/02 09:52:37;;;;;;;2.60;2.40;;;;;;;3.72;53.99;100977.00;5072309;28;20255;-70
2022/04/02 09:55:10;;;;;;;3.23;2.33;;;;;;;3.81;54.44;100995.25;5071779;28;20713;-70
2022/04/02 09:58:12;;;;;;;2.53;2.33;;;;;;;3.77;53.62;101027.03;5072255;28;20278;-70
2022/04/02 10:00:45;;;;;;;2.20;2.07;;;;;;;3.91;54.57;101016.94;5038569;28;20254;-70
2022/04/02 10:03:17;;;;;;;1.77;1.60;;;;;;;3.99;53.43;101048.94;5071940;28;20211;-70
2022/04/02 10:06:01;;;;;;;2.30;2.10;;;;;;;4.00;53.24;101048.06;5090906;28;20192;-70
2022/04/02 10:08:39;;;;;;;3.93;2.40;;;;;;;3.95;52.14;101079.00;5091902;28;20242;-70
2022/04/02 10:11:08;;;;;;;2.37;2.17;;;;;;;3.89;52.03;101096.97;5091765;28;20716;-70
2022/04/02 10:13:36;;;;;;;2.17;1.70;;;;;;;3.78;51.91;101130.31;5091897;28;20260;-70
2022/04/02 10:16:04;;;;;;;1.87;1.77;;;;;;;3.91;51.86;101100.44;5092237;28;20230;-70
2022/04/02 10:18:35;;;;;;;2.00;1.63;;;;;;;4.08;51.69;101112.78;5092313;28;20208;-70
2022/04/02 10:21:06;;;;;;;2.83;2.07;;;;;;;4.18;51.14;101145.69;5091532;28;20224;-70
2022/04/02 10:23:37;;;;;;;3.60;2.10;;;;;;;4.25;51.63;101126.03;5091766;28;20666;-70
2022/04/02 10:26:13;;;;;;;2.30;2.07;;;;;;;4.34;52.31;101115.84;5091925;28;20234;-70
2022/04/02 10:28:49;;;;;;;1.90;1.80;;;;;;;4.43;50.52;101143.59;5092160;28;20257;-70
2022/04/02 10:31:30;;;;;;;2.80;1.97;;;;;;;4.51;49.01;101197.16;5092118;28;20208;-70
2022/04/02 10:34:02;;;;;;;3.53;2.13;;;;;;;4.64;49.66;101212.88;5087578;28;20274;-70
2022/04/02 10:36:30;;;;;;;4.57;1.67;;;;;;;4.65;48.89;101232.72;5089951;28;20314;-71
2022/04/02 10:38:58;;;;;;;2.20;2.00;;;;;;;4.54;49.86;101243.75;5091788;28;20208;-71
2022/04/02 10:41:30;;;;;;;2.73;2.27;;;;;;;4.61;49.78;101195.59;5091824;28;20611;-70
2022/04/02 10:44:00;;;;;;;2.77;2.43;;;;;;;4.72;50.47;101203.56;5091653;28;20803;-70
2022/04/02 10:46:27;;;;;;;2.20;2.10;;;;;;;4.71;48.80;101192.31;5091996;28;20261;-70
2022/04/02 10:48:57;;;;;;;2.77;2.10;;;;;;;4.61;49.00;101233.53;5091795;28;20278;-70
2022/04/02 10:51:26;;;;;;;2.10;1.93;;;;;;;4.51;48.11;101248.84;5091428;28;20204;-70
2022/04/02 10:54:02;;;;;;;2.50;2.30;;;;;;;4.49;49.45;101240.19;5092898;28;20211;-70
2022/04/02 10:56:33;;;;;;;2.30;2.10;;;;;;;4.46;50.59;101211.72;5095730;28;20708;-70
2022/04/02 10:59:00;;;;;;;2.43;1.67;;;;;;;4.48;50.42;101203.97;5095866;28;20203;-70
2022/04/02 11:01:27;;;;;;;2.93;1.87;;;;;;;4.51;50.38;101191.13;5095787;28;20200;-70
2022/04/02 11:03:56;;;;;;;2.33;2.13;;;;;;;4.60;50.08;101198.16;5095382;28;20586;-70
2022/04/02 11:06:45;;;;;;;2.00;1.77;;;;;;;4.65;49.31;101217.22;5095499;28;20688;-69
2022/04/02 11:09:27;;;;;;;2.33;2.07;;;;;;;4.71;48.84;101238.88;5089341;22;20602;-74
2022/04/02 11:11:54;;;;;;;3.00;2.37;;;;;;;4.68;49.14;101246.59;5056847;28;20217;-74
2022/04/02 11:14:21;;;;;;;2.30;2.10;;;;;;;4.57;48.54;101266.19;5054907;28;20217;-74
2022/04/02 11:16:48;;;;;;;3.53;2.23;;;;;;;4.50;49.66;101246.22;5054944;28;20222;-75
2022/04/02 11:22:04;;;;;;;2.03;1.80;;;;;;;4.23;49.23;101262.94;5053864;28;20342;-72
2022/04/02 11:24:39;;;;;;;1.80;1.70;;;;;;;4.23;49.01;101259.50;5054432;28;20666;-72
2022/04/02 11:27:07;;;;;;;2.13;2.00;;;;;;;4.22;49.68;101244.81;5054936;28;20263;-75
2022/04/02 11:29:37;;;;;;;2.37;2.10;;;;;;;4.27;50.09;101226.00;5053932;28;20226;-72
2022/04/02 11:32:07;;;;;;;2.33;2.07;;;;;;;4.41;51.01;101200.41;5054703;28;20209;-72
2022/04/02 11:34:36;;;;;;;2.40;2.27;;;;;;;4.40;51.16;101201.28;5054842;28;20252;-72
2022/04/02 11:37:07;;;;;;;3.73;2.97;;;;;;;4.48;50.60;101185.88;5054701;28;20279;-72
2022/04/02 11:39:41;;;;;;;2.50;1.80;;;;;;;4.52;50.35;101201.50;5054465;28;20229;-72
2022/04/02 11:42:08;;;;;;;2.47;2.07;;;;;;;4.63;50.68;101195.63;5054617;28;20201;-72
2022/04/02 11:44:37;;;;;;;2.67;2.00;;;;;;;4.75;49.69;101209.63;5054621;28;20210;-73
2022/04/02 11:47:05;;;;;;;2.30;1.83;;;;;;;4.87;48.96;101236.56;5054675;28;20210;-73
2022/04/02 11:49:34;;;;;;;2.77;1.93;;;;;;;5.03;49.27;101241.16;5054566;28;20227;-73
2022/04/02 11:52:02;;;;;;;2.33;2.00;;;;;;;5.08;47.28;101286.09;5054658;28;20296;-73
2022/04/02 11:54:28;;;;;;;2.27;2.07;;;;;;;5.33;47.21;101312.38;5054325;28;20304;-73